createdAt,value
2023-01-30T00:00:55.258Z,100905.78
2023-01-30T00:03:24.024Z,100889.03
2023-01-30T00:05:51.784Z,100885.09
2023-01-30T00:08:19.730Z,100857.59
2023-01-30T00:10:49.160Z,100867.66
2023-01-30T00:13:17.118Z,100851.28
2023-01-30T00:15:45.052Z,100844.63
2023-01-30T00:18:12.476Z,100854.84
2023-01-30T00:20:39.940Z,100857.16
2023-01-30T00:23:07.375Z,100844.38
2023-01-30T00:25:35.060Z,100845.59
2023-01-30T00:28:04.007Z,100821.41
2023-01-30T00:30:31.629Z,100816.38
2023-01-30T00:33:00.258Z,100799.47
2023-01-30T00:35:29.325Z,100784.31
2023-01-30T00:37:58.149Z,100773.63
2023-01-30T00:40:26.882Z,100766.84
2023-01-30T00:46:04.139Z,100736.16
2023-01-30T00:48:32.372Z,100732.72
2023-01-30T00:50:59.842Z,100721.78
2023-01-30T00:53:27.298Z,100708.06
2023-01-30T00:55:55.817Z,100702.63
2023-01-30T00:58:24.795Z,100687.44
2023-01-30T01:00:53.811Z,100704.09
2023-01-30T01:03:21.332Z,100705.41
2023-01-30T01:05:49.653Z,100698.16
2023-01-30T01:08:17.550Z,100709.75
2023-01-30T01:10:45.079Z,100692.34
2023-01-30T01:13:12.533Z,100685.00
2023-01-30T01:15:39.994Z,100680.56
2023-01-30T01:18:08.787Z,100635.53
2023-01-30T01:20:36.198Z,100626.88
2023-01-30T01:23:03.724Z,100629.59
2023-01-30T01:25:31.185Z,100633.56
2023-01-30T01:27:58.646Z,100628.38
2023-01-30T01:30:26.126Z,100620.25
2023-01-30T01:32:53.604Z,100637.06
2023-01-30T01:35:22.364Z,100622.75
2023-01-30T01:37:53.650Z,100615.59
2023-01-30T01:40:40.337Z,100639.34
2023-01-30T01:43:16.813Z,100646.72
2023-01-30T01:45:45.453Z,100637.03
2023-01-30T01:48:17.204Z,100638.47
2023-01-30T01:50:50.676Z,100641.53
2023-01-30T01:53:22.120Z,100624.94
2023-01-30T01:55:53.037Z,100622.16
2023-01-30T01:58:26.625Z,100609.91
2023-01-30T02:00:57.885Z,100593.16
2023-01-30T02:03:27.912Z,100589.25
2023-01-30T02:05:59.410Z,100578.41
2023-01-30T02:08:31.322Z,100555.41
2023-01-30T02:11:04.340Z,100555.94
2023-01-30T02:13:32.473Z,100549.44
2023-01-30T02:16:05.349Z,100543.88
2023-01-30T02:18:35.078Z,100530.50
2023-01-30T02:21:25.935Z,100520.81
2023-01-30T02:24:17.927Z,100491.56
2023-01-30T02:26:55.479Z,100509.41
2023-01-30T02:30:19.476Z,100498.91
2023-01-30T02:32:57.558Z,100503.75
2023-01-30T02:35:30.669Z,100503.91
2023-01-30T02:38:13.778Z,100493.84
2023-01-30T02:40:49.758Z,100489.84
2023-01-30T02:43:26.154Z,100486.47
2023-01-30T02:46:01.590Z,100470.09
2023-01-30T02:48:36.938Z,100460.69
2023-01-30T02:51:07.570Z,100472.72
2023-01-30T02:53:35.758Z,100449.50
2023-01-30T02:56:04.648Z,100445.38
2023-01-30T02:58:38.098Z,100444.97
2023-01-30T03:01:21.812Z,100435.47
2023-01-30T03:04:08.272Z,100429.50
2023-01-30T03:06:50.705Z,100428.78
2023-01-30T03:09:26.600Z,100420.75
2023-01-30T03:12:03.922Z,100401.97
2023-01-30T03:14:38.818Z,100403.25
2023-01-30T03:17:09.926Z,100410.00
2023-01-30T03:19:39.149Z,100398.19
2023-01-30T03:22:06.613Z,100384.88
2023-01-30T03:24:34.426Z,100385.41
2023-01-30T03:27:06.780Z,100380.28
2023-01-30T03:29:34.558Z,100379.00
2023-01-30T03:32:01.995Z,100379.09
2023-01-30T03:34:29.570Z,100369.91
2023-01-30T03:36:58.521Z,100378.19
2023-01-30T03:39:26.400Z,100374.91
2023-01-30T03:41:54.976Z,100363.00
2023-01-30T03:44:22.530Z,100355.47
2023-01-30T03:46:49.985Z,100346.84
2023-01-30T03:49:18.062Z,100346.38
2023-01-30T03:51:45.723Z,100339.47
2023-01-30T03:54:14.555Z,100343.22
2023-01-30T03:56:42.001Z,100326.16
2023-01-30T03:59:09.613Z,100323.22
2023-01-30T04:01:37.163Z,100320.47
2023-01-30T04:04:04.777Z,100319.59
2023-01-30T04:06:32.269Z,100296.97
2023-01-30T04:08:59.760Z,100293.91
2023-01-30T04:11:28.684Z,100291.50
2023-01-30T04:13:56.177Z,100291.88
2023-01-30T04:16:26.023Z,100290.78
2023-01-30T04:18:54.046Z,100291.94
2023-01-30T04:21:21.976Z,100286.19
2023-01-30T04:23:49.564Z,100284.03
2023-01-30T04:26:17.220Z,100272.97
2023-01-30T04:28:45.999Z,100273.72
2023-01-30T04:31:13.425Z,100270.75
2023-01-30T04:33:41.017Z,100278.44
2023-01-30T04:36:10.453Z,100268.34
2023-01-30T04:38:38.290Z,100264.16
2023-01-30T04:41:06.450Z,100258.22
2023-01-30T04:43:34.001Z,100268.41
2023-01-30T04:46:02.794Z,100252.47
2023-01-30T04:48:30.229Z,100250.66
2023-01-30T04:50:58.262Z,100249.63
2023-01-30T04:53:26.229Z,100250.28
2023-01-30T04:55:53.680Z,100243.03
2023-01-30T04:58:21.187Z,100242.94
2023-01-30T05:00:49.896Z,100242.53
2023-01-30T05:03:18.814Z,100238.91
2023-01-30T05:05:48.153Z,100229.44
2023-01-30T05:08:17.102Z,100224.25
2023-01-30T05:10:44.602Z,100229.03
2023-01-30T05:13:12.066Z,100224.91
2023-01-30T05:15:40.395Z,100221.22
2023-01-30T05:18:07.797Z,100218.44
2023-01-30T05:20:36.534Z,100211.31
2023-01-30T05:23:03.939Z,100211.91
2023-01-30T05:25:31.505Z,100208.16
2023-01-30T05:27:59.013Z,100203.91
2023-01-30T05:30:26.455Z,100192.53
2023-01-30T05:32:53.913Z,100186.63
2023-01-30T05:35:21.430Z,100186.00
2023-01-30T05:37:52.747Z,100172.31
2023-01-30T05:40:20.307Z,100169.75
2023-01-30T05:42:47.752Z,100168.19
2023-01-30T05:45:15.478Z,100159.56
2023-01-30T05:47:42.891Z,100154.31
2023-01-30T05:50:12.018Z,100157.22
2023-01-30T05:52:39.419Z,100142.28
2023-01-30T05:55:09.616Z,100139.06
2023-01-30T05:57:37.007Z,100139.22
2023-01-30T06:00:05.301Z,100124.22
2023-01-30T06:02:32.781Z,100122.84
2023-01-30T06:05:00.209Z,100125.66
2023-01-30T06:07:27.598Z,100130.09
2023-01-30T06:09:55.014Z,100135.09
2023-01-30T06:12:23.762Z,100128.56
2023-01-30T06:14:51.172Z,100132.13
2023-01-30T06:17:18.621Z,100122.63
2023-01-30T06:19:46.064Z,100128.72
2023-01-30T06:22:13.437Z,100117.03
2023-01-30T06:24:40.825Z,100123.97
2023-01-30T06:27:08.208Z,100128.47
2023-01-30T06:29:36.956Z,100118.31
2023-01-30T06:32:04.556Z,100129.13
2023-01-30T06:34:31.963Z,100136.47
2023-01-30T06:36:59.405Z,100124.50
2023-01-30T06:39:26.805Z,100134.03
2023-01-30T06:41:54.223Z,100138.03
2023-01-30T06:44:21.615Z,100136.72
2023-01-30T06:46:50.392Z,100140.16
2023-01-30T06:49:17.766Z,100130.22
2023-01-30T06:51:45.208Z,100118.59
2023-01-30T06:54:12.612Z,100120.69
2023-01-30T06:56:40.014Z,100108.34
2023-01-30T06:59:07.523Z,100112.19
2023-01-30T07:01:34.975Z,100111.75
2023-01-30T07:04:03.725Z,100105.00
2023-01-30T07:06:31.185Z,100109.19
2023-01-30T07:08:58.865Z,100106.34
2023-01-30T07:11:26.329Z,100102.09
2023-01-30T07:13:53.763Z,100102.97
2023-01-30T07:16:23.957Z,100093.38
2023-01-30T07:18:51.357Z,100095.25
2023-01-30T07:21:20.070Z,100093.72
2023-01-30T07:23:48.117Z,100094.94
2023-01-30T07:26:15.563Z,100090.41
2023-01-30T07:28:43.004Z,100079.66
2023-01-30T07:31:10.453Z,100085.50
2023-01-30T07:33:37.929Z,100083.19
2023-01-30T07:36:05.965Z,100082.22
2023-01-30T07:38:34.821Z,100087.97
2023-01-30T07:41:02.346Z,100090.63
2023-01-30T07:43:29.724Z,100098.88
2023-01-30T07:45:57.134Z,100097.22
2023-01-30T07:48:24.559Z,100092.63
2023-01-30T07:50:56.368Z,100100.91
2023-01-30T07:53:24.070Z,100106.63
2023-01-30T07:55:52.891Z,100101.47
2023-01-30T07:58:20.326Z,100113.34
2023-01-30T08:00:47.877Z,100109.41
2023-01-30T08:03:17.918Z,100109.16
2023-01-30T08:05:46.741Z,100112.34
2023-01-30T08:08:14.549Z,100108.34
2023-01-30T08:10:42.063Z,100109.91
2023-01-30T08:13:11.108Z,100103.91
2023-01-30T08:15:38.606Z,100098.72
2023-01-30T08:18:07.349Z,100101.22
2023-01-30T08:20:35.141Z,100093.56
2023-01-30T08:23:02.916Z,100099.44
2023-01-30T08:25:30.780Z,100091.53
2023-01-30T08:27:59.889Z,100087.91
2023-01-30T08:30:30.337Z,100073.34
2023-01-30T08:32:58.406Z,100071.06
2023-01-30T08:35:25.935Z,100086.00
2023-01-30T08:37:53.345Z,100096.38
2023-01-30T08:40:21.092Z,100101.59
2023-01-30T08:42:48.650Z,100103.72
2023-01-30T08:45:16.105Z,100099.25
2023-01-30T08:47:44.860Z,100090.75
2023-01-30T08:50:12.517Z,100099.94
2023-01-30T08:52:40.108Z,100101.91
2023-01-30T08:55:08.277Z,100095.63
2023-01-30T08:57:35.715Z,100086.34
2023-01-30T09:00:03.791Z,100094.38
2023-01-30T09:02:31.370Z,100091.97
2023-01-30T09:05:00.230Z,100087.53
2023-01-30T09:07:28.741Z,100086.47
2023-01-30T09:09:56.608Z,100096.63
2023-01-30T09:12:24.500Z,100096.31
2023-01-30T09:14:53.135Z,100090.19
2023-01-30T09:17:20.644Z,100092.50
2023-01-30T09:19:48.103Z,100093.34
2023-01-30T09:22:17.486Z,100102.34
2023-01-30T09:24:45.250Z,100102.28
2023-01-30T09:27:12.683Z,100102.44
2023-01-30T09:29:40.080Z,100096.81
2023-01-30T09:32:07.515Z,100101.66
2023-01-30T09:34:35.074Z,100101.13
2023-01-30T09:37:04.789Z,100091.31
2023-01-30T09:39:33.851Z,100105.63
2023-01-30T09:42:23.705Z,100101.44
2023-01-30T09:45:24.351Z,100102.19
2023-01-30T09:48:03.297Z,100093.78
2023-01-30T09:50:47.465Z,100095.16
2023-01-30T09:53:22.152Z,100095.19
2023-01-30T09:55:51.186Z,100095.00
2023-01-30T09:58:21.793Z,100086.69
2023-01-30T10:00:52.516Z,100090.66
2023-01-30T10:03:25.417Z,100092.28
2023-01-30T10:05:57.685Z,100084.72
2023-01-30T10:08:51.057Z,100093.41
2023-01-30T10:11:31.602Z,100087.00
2023-01-30T10:14:14.377Z,100086.19
2023-01-30T10:16:47.988Z,100082.84
2023-01-30T10:19:35.646Z,100088.16
2023-01-30T10:22:16.724Z,100089.94
2023-01-30T10:24:57.290Z,100102.41
2023-01-30T10:27:28.687Z,100102.47
2023-01-30T10:29:59.235Z,100095.81
2023-01-30T10:32:31.841Z,100099.66
2023-01-30T10:35:05.506Z,100097.56
2023-01-30T10:37:37.680Z,100090.66
2023-01-30T10:40:15.440Z,100082.41
2023-01-30T10:42:51.586Z,100084.59
2023-01-30T10:45:24.460Z,100075.78
2023-01-30T10:48:07.854Z,100088.34
2023-01-30T10:50:46.356Z,100079.03
2023-01-30T10:53:21.588Z,100070.00
2023-01-30T10:55:53.785Z,100077.66
2023-01-30T10:58:31.717Z,100070.69
2023-01-30T11:01:02.051Z,100071.03
2023-01-30T11:03:39.048Z,100068.91
2023-01-30T11:06:11.671Z,100060.91
2023-01-30T11:08:39.203Z,100052.25
2023-01-30T11:11:24.535Z,100056.03
2023-01-30T11:14:02.003Z,100052.97
2023-01-30T11:16:29.999Z,100043.22
2023-01-30T11:21:51.796Z,100032.50
2023-01-30T11:24:21.893Z,100028.91
2023-01-30T11:26:50.410Z,100016.53
2023-01-30T11:29:27.132Z,100016.41
2023-01-30T11:31:55.616Z,100013.03
2023-01-30T11:34:25.329Z,100012.94
2023-01-30T11:36:52.895Z,99995.53
2023-01-30T11:39:24.010Z,100000.72
2023-01-30T11:42:01.887Z,99990.06
2023-01-30T11:44:33.173Z,99993.31
2023-01-30T11:47:02.804Z,100017.75
2023-01-30T11:49:50.812Z,99996.97
2023-01-30T11:52:28.943Z,99994.72
2023-01-30T11:55:03.244Z,99989.19
2023-01-30T11:57:31.005Z,100018.53
2023-01-30T12:00:01.713Z,100024.22
2023-01-30T12:02:33.143Z,100001.19
2023-01-30T12:05:03.022Z,100013.34
2023-01-30T12:07:32.488Z,100011.59
2023-01-30T12:10:00.600Z,99984.47
2023-01-30T12:12:33.994Z,99974.50
2023-01-30T12:15:18.094Z,99986.47
2023-01-30T12:17:50.306Z,99978.25
2023-01-30T12:20:26.087Z,99980.09
2023-01-30T12:23:03.012Z,99968.41
2023-01-30T12:25:36.089Z,99967.44
2023-01-30T12:28:11.984Z,99951.22
2023-01-30T12:30:47.319Z,99944.56
2023-01-30T12:36:01.199Z,99933.47
2023-01-30T12:38:42.313Z,99924.34
2023-01-30T12:41:26.948Z,99924.06
2023-01-30T12:44:08.369Z,99929.53
2023-01-30T12:46:53.704Z,99914.53
2023-01-30T12:49:37.703Z,99932.41
2023-01-30T12:52:29.899Z,99935.63
2023-01-30T12:57:54.729Z,99922.66
2023-01-30T13:00:34.548Z,99918.91
2023-01-30T13:03:20.221Z,99923.44
2023-01-30T13:05:55.181Z,99915.13
2023-01-30T13:08:38.498Z,99917.63
2023-01-30T13:11:16.479Z,99917.53
2023-01-30T13:13:50.371Z,99922.03
2023-01-30T13:16:29.128Z,99916.69
2023-01-30T13:19:03.688Z,99916.94
2023-01-30T13:21:37.750Z,99911.69
2023-01-30T13:24:22.173Z,99920.03
2023-01-30T13:26:53.622Z,99908.31
2023-01-30T13:29:27.141Z,99909.19
2023-01-30T13:31:58.031Z,99893.78
2023-01-30T13:34:32.727Z,99895.94
2023-01-30T13:37:05.109Z,99881.84
2023-01-30T13:39:42.353Z,99890.16
2023-01-30T13:42:19.036Z,99898.22
2023-01-30T13:44:47.108Z,99905.78
2023-01-30T13:47:28.925Z,99916.19
2023-01-30T13:50:10.090Z,99918.09
2023-01-30T13:52:45.659Z,99918.25
2023-01-30T13:55:26.271Z,99937.16
2023-01-30T13:58:00.545Z,99937.91
2023-01-30T14:00:30.994Z,99942.84
2023-01-30T14:03:25.004Z,99953.06
2023-01-30T14:06:37.870Z,99954.53
2023-01-30T14:09:22.685Z,99965.53
2023-01-30T14:11:58.413Z,99979.03
2023-01-30T14:14:30.229Z,99974.56
2023-01-30T14:17:08.758Z,99956.28
2023-01-30T14:19:40.663Z,99961.28
2023-01-30T14:22:29.383Z,99982.41
2023-01-30T14:25:45.929Z,99994.63
2023-01-30T14:28:51.918Z,99992.50
2023-01-30T14:31:53.674Z,100004.47
2023-01-30T14:35:16.923Z,100028.22
2023-01-30T14:37:51.246Z,100027.41
2023-01-30T14:40:31.580Z,100060.06
2023-01-30T14:43:41.728Z,100051.88
2023-01-30T14:46:29.068Z,100053.56
2023-01-30T14:49:05.026Z,100066.00
2023-01-30T14:51:36.692Z,100074.41
2023-01-30T14:54:20.574Z,100070.19
2023-01-30T14:56:54.086Z,100072.16
2023-01-30T14:59:25.961Z,100069.66
2023-01-30T15:02:22.326Z,100063.81
2023-01-30T15:04:57.195Z,100060.31
2023-01-30T15:07:27.697Z,100070.66
2023-01-30T15:09:59.887Z,100062.25
2023-01-30T15:13:10.459Z,100073.31
2023-01-30T15:15:45.947Z,100068.06
2023-01-30T15:19:06.631Z,100070.81
2023-01-30T15:21:49.451Z,100068.50
2023-01-30T15:24:33.448Z,100086.53
2023-01-30T15:27:13.042Z,100075.09
2023-01-30T15:30:01.754Z,100071.69
2023-01-30T15:32:30.921Z,100088.53
2023-01-30T15:35:00.534Z,100095.44
2023-01-30T15:37:33.758Z,100087.16
2023-01-30T15:40:29.701Z,100091.22
2023-01-30T15:43:14.132Z,100085.88
2023-01-30T15:45:50.228Z,100102.91
2023-01-30T15:48:41.062Z,100099.53
2023-01-30T15:51:14.139Z,100110.63
2023-01-30T15:53:44.346Z,100106.00
2023-01-30T15:56:18.473Z,100113.03
2023-01-30T15:58:47.614Z,100098.53
2023-01-30T16:01:20.457Z,100114.38
2023-01-30T16:03:53.252Z,100121.31
2023-01-30T16:06:23.687Z,100125.19
2023-01-30T16:09:00.438Z,100126.06
2023-01-30T16:11:39.630Z,100124.13
2023-01-30T16:14:14.381Z,100126.16
2023-01-30T16:16:46.072Z,100123.66
2023-01-30T16:19:22.695Z,100154.44
2023-01-30T16:21:50.548Z,100146.47
2023-01-30T16:24:21.378Z,100163.16
2023-01-30T16:26:52.406Z,100157.44
2023-01-30T16:29:24.029Z,100163.00
2023-01-30T16:31:53.723Z,100171.16
2023-01-30T16:34:33.621Z,100178.06
2023-01-30T16:37:07.710Z,100174.53
2023-01-30T16:39:37.005Z,100174.63
2023-01-30T16:42:20.923Z,100175.53
2023-01-30T16:44:49.616Z,100185.91
2023-01-30T16:47:25.111Z,100188.00
2023-01-30T16:49:54.016Z,100183.69
2023-01-30T16:52:24.082Z,100193.31
2023-01-30T16:54:54.085Z,100203.47
2023-01-30T16:57:31.683Z,100186.19
2023-01-30T17:00:00.898Z,100215.19
2023-01-30T17:02:34.345Z,100216.91
2023-01-30T17:05:19.510Z,100230.69
2023-01-30T17:07:47.778Z,100228.53
2023-01-30T17:10:51.322Z,100227.50
2023-01-30T17:13:32.212Z,100244.56
2023-01-30T17:16:27.190Z,100241.84
2023-01-30T17:18:56.438Z,100252.50
2023-01-30T17:21:26.374Z,100255.19
2023-01-30T17:23:56.947Z,100254.41
2023-01-30T17:26:24.649Z,100258.06
2023-01-30T17:28:52.162Z,100258.66
2023-01-30T17:31:20.332Z,100274.09
2023-01-30T17:33:49.163Z,100291.94
2023-01-30T17:36:23.993Z,100284.66
2023-01-30T17:38:52.023Z,100290.28
2023-01-30T17:41:21.409Z,100285.25
2023-01-30T17:43:49.853Z,100299.72
2023-01-30T17:46:18.400Z,100296.31
2023-01-30T17:48:45.934Z,100305.53
2023-01-30T17:51:14.701Z,100308.25
2023-01-30T17:53:42.629Z,100308.28
2023-01-30T17:56:18.648Z,100321.09
2023-01-30T17:58:46.213Z,100315.31
2023-01-30T18:01:16.057Z,100327.59
2023-01-30T18:03:44.927Z,100329.34
2023-01-30T18:06:15.442Z,100338.94
2023-01-30T18:08:43.567Z,100343.91
2023-01-30T18:11:11.959Z,100339.78
2023-01-30T18:13:40.474Z,100354.25
2023-01-30T18:16:11.217Z,100363.47
2023-01-30T18:18:38.622Z,100388.25
2023-01-30T18:21:06.414Z,100386.50
2023-01-30T18:23:37.025Z,100381.72
2023-01-30T18:26:04.815Z,100397.75
2023-01-30T18:28:32.328Z,100403.16
2023-01-30T18:30:59.872Z,100394.94
2023-01-30T18:33:27.470Z,100394.75
2023-01-30T18:35:54.828Z,100406.75
2023-01-30T18:38:22.427Z,100419.84
2023-01-30T18:40:51.185Z,100424.78
2023-01-30T18:43:18.576Z,100415.75
2023-01-30T18:45:45.964Z,100423.84
2023-01-30T18:48:13.361Z,100432.16
2023-01-30T18:50:40.760Z,100441.88
2023-01-30T18:53:08.507Z,100445.75
2023-01-30T18:55:36.193Z,100455.44
2023-01-30T18:58:04.932Z,100453.72
2023-01-30T19:00:32.337Z,100459.59
2023-01-30T19:02:59.813Z,100458.59
2023-01-30T19:05:27.339Z,100475.03
2023-01-30T19:07:55.551Z,100469.94
2023-01-30T19:10:23.030Z,100476.53
2023-01-30T19:13:07.826Z,100480.81
2023-01-30T19:15:37.346Z,100493.59
2023-01-30T19:18:05.124Z,100492.22
2023-01-30T19:20:32.542Z,100490.25
2023-01-30T19:22:59.948Z,100505.41
2023-01-30T19:25:27.551Z,100509.50
2023-01-30T19:27:56.430Z,100513.81
2023-01-30T19:30:24.404Z,100522.88
2023-01-30T19:32:54.296Z,100521.50
2023-01-30T19:35:22.059Z,100543.38
2023-01-30T19:37:49.623Z,100551.88
2023-01-30T19:40:18.012Z,100555.50
2023-01-30T19:42:46.564Z,100557.06
2023-01-30T19:45:14.948Z,100552.38
2023-01-30T19:47:42.432Z,100547.19
2023-01-30T19:50:12.384Z,100553.94
2023-01-30T19:52:40.779Z,100559.28
2023-01-30T19:55:08.918Z,100548.75
2023-01-30T19:57:36.554Z,100562.81
2023-01-30T20:00:05.142Z,100563.78
2023-01-30T20:02:32.602Z,100564.50
2023-01-30T20:05:00.045Z,100568.75
2023-01-30T20:07:29.831Z,100569.38
2023-01-30T20:09:57.245Z,100585.72
2023-01-30T20:12:24.682Z,100586.00
2023-01-30T20:14:52.092Z,100593.91
2023-01-30T20:17:19.519Z,100599.25
2023-01-30T20:19:46.933Z,100601.44
2023-01-30T20:22:14.398Z,100610.28
2023-01-30T20:24:43.199Z,100619.63
2023-01-30T20:27:10.613Z,100624.84
2023-01-30T20:29:38.026Z,100618.22
2023-01-30T20:32:06.124Z,100621.41
2023-01-30T20:34:33.595Z,100626.94
2023-01-30T20:37:00.978Z,100635.91
2023-01-30T20:39:28.458Z,100630.72
2023-01-30T20:41:57.206Z,100626.44
2023-01-30T20:44:25.743Z,100639.91
2023-01-30T20:46:53.199Z,100658.38
2023-01-30T20:49:22.138Z,100669.44
2023-01-30T20:51:52.293Z,100638.94
2023-01-30T20:54:21.553Z,100649.31
2023-01-30T20:56:50.900Z,100642.94
2023-01-30T20:59:23.909Z,100644.81
2023-01-30T21:01:52.135Z,100645.59
2023-01-30T21:04:20.866Z,100657.78
2023-01-30T21:06:48.329Z,100657.16
2023-01-30T21:09:17.522Z,100689.44
2023-01-30T21:11:45.314Z,100693.31
2023-01-30T21:14:13.331Z,100707.13
2023-01-30T21:16:42.429Z,100714.97
2023-01-30T21:19:16.484Z,100710.03
2023-01-30T21:21:50.595Z,100724.66
2023-01-30T21:24:21.427Z,100708.44
2023-01-30T21:26:49.201Z,100720.84
2023-01-30T21:29:18.936Z,100722.19
2023-01-30T21:31:50.605Z,100736.00
2023-01-30T21:34:18.220Z,100746.50
2023-01-30T21:37:05.638Z,100754.72
2023-01-30T21:39:50.847Z,100748.22
2023-01-30T21:42:34.753Z,100757.66
2023-01-30T21:45:02.384Z,100762.25
2023-01-30T21:47:31.241Z,100758.28
2023-01-30T21:49:58.654Z,100765.25
2023-01-30T21:52:26.188Z,100767.13
2023-01-30T21:54:53.610Z,100781.25
2023-01-30T21:57:21.023Z,100790.69
2023-01-30T21:59:48.457Z,100801.34
2023-01-30T22:02:15.966Z,100802.38
2023-01-30T22:04:44.700Z,100802.81
2023-01-30T22:07:12.093Z,100809.09
2023-01-30T22:09:39.801Z,100806.69
2023-01-30T22:12:07.598Z,100798.03
2023-01-30T22:14:36.345Z,100800.19
2023-01-30T22:17:03.921Z,100812.00
2023-01-30T22:19:35.668Z,100805.81
2023-01-30T22:22:04.985Z,100811.81
2023-01-30T22:24:32.424Z,100824.63
2023-01-30T22:26:59.930Z,100825.38
2023-01-30T22:29:28.974Z,100836.22
2023-01-30T22:31:56.425Z,100833.84
2023-01-30T22:34:23.896Z,100826.09
2023-01-30T22:36:51.729Z,100834.72
2023-01-30T22:39:20.468Z,100846.41
2023-01-30T22:41:47.874Z,100843.63
2023-01-30T22:44:15.269Z,100847.53
2023-01-30T22:46:42.860Z,100854.19
2023-01-30T22:49:10.955Z,100853.03
2023-01-30T22:51:40.924Z,100842.66
2023-01-30T22:54:11.001Z,100854.28
2023-01-30T22:56:41.591Z,100865.13
2023-01-30T22:59:10.485Z,100855.34
2023-01-30T23:01:39.559Z,100851.31
2023-01-30T23:04:10.824Z,100857.00
2023-01-30T23:06:38.569Z,100865.69
2023-01-30T23:09:08.693Z,100863.31
2023-01-30T23:11:37.979Z,100872.88
2023-01-30T23:14:13.280Z,100871.31
2023-01-30T23:16:42.887Z,100878.81
2023-01-30T23:19:10.886Z,100883.22
2023-01-30T23:21:40.678Z,100880.06
2023-01-30T23:24:11.265Z,100888.78
2023-01-30T23:26:40.831Z,100891.97
2023-01-30T23:29:13.204Z,100899.63
2023-01-30T23:31:41.740Z,100898.25
2023-01-30T23:34:13.399Z,100900.47
2023-01-30T23:36:40.901Z,100903.84
2023-01-30T23:39:08.456Z,100902.88
2023-01-30T23:41:37.566Z,100912.88
2023-01-30T23:44:05.350Z,100905.19
2023-01-30T23:46:36.458Z,100905.25
2023-01-30T23:49:06.410Z,100903.53
2023-01-30T23:51:35.719Z,100900.25
2023-01-30T23:54:03.419Z,100903.38
2023-01-30T23:56:33.099Z,100887.97
2023-01-30T23:59:00.812Z,100897.72
